Briefing drone pour Beaurieux

Rechercher une autre localisation

Conditions de vol :


Nous sommes le : Dimanche 11 avril 2021
Il est 12:36 UTC (14:36 LT)

Lever de soleil : 04:34 UTC (06:34 LT)
Coucher de soleil : 18:57 UTC (20:57 LT)

Météo

L'essentiel des conditions de vol

VIGILANCE MÉTÉO FRANCE - Aisne (02)
Pas de vigilances particulieres
CARTES DES FRONTS
METAR de LFQA
LFQA 111230Z AUTO VRB12KT 9999 -RA BKN013 BKN018 OVC024 05/03 Q1014

Date d'émission: 11/04/2021
Heure d'émission: 12:30 UTC
Vent: Variable 12 KT (22 km/h)
Visibilité horizontale: > 10 km
Plafond :
- Nuages morcelés à 1300ft (396m)
- Nuages morcelés à 1800ft (549m)
- Couvert à 2400ft (732m)
Température: 5 °C
Point de rosée: 3 °C
Humidité: 87%
Pression (QNH): 1014 hPa
Conditions: Faible pluie
Prévision 24h pour Reims (17 km)
Vent : 287° pour 3 KT (10 km/h)
Temperature Maxi: 6 °C
Temperature Min: 6 °C
Humidité : 65%
Condition : Ciel dégagé



Warning: count(): Parameter must be an array or an object that implements Countable in /homepages/6/d509196549/htdocs/droneoxygene/briefing.php on line 743
WEBCAM POUR BEAURIEUX

Réglementation

Voler en sécurité

CARTES AERONAUTIQUE 1/500.000
CARTES VAC (LFQA)
SUP AIP




Chargement des AIP...
NOTAM (BEAURIEUX + Terrain à proximité / FIR )




Chargement des NOTAMS...
CONTACT PREFECTURE 02


Avertissement : Les données mises à disposition sont indicatives. Oxygène Drone ne pourra être tenu responsable de dégâts causés aux biens et aux personnes.